sensor_id;sensor_type;location;lat;lon;timestamp;pressure;altitude;pressure_sealevel;temperature;humidity
61361;BME280;47232;47.506;18.936;2022-11-20T00:00:55;97900.56;;;2.38;67.86
61361;BME280;47232;47.506;18.936;2022-11-20T00:03:21;97898.69;;;2.43;67.84
61361;BME280;47232;47.506;18.936;2022-11-20T00:05:46;97889.17;;;2.48;67.98
61361;BME280;47232;47.506;18.936;2022-11-20T00:08:12;97887.25;;;2.54;67.88
61361;BME280;47232;47.506;18.936;2022-11-20T00:10:39;97896.48;;;2.60;67.77
61361;BME280;47232;47.506;18.936;2022-11-20T00:13:06;97893.77;;;2.63;67.39
61361;BME280;47232;47.506;18.936;2022-11-20T00:15:31;97893.14;;;2.64;67.18
61361;BME280;47232;47.506;18.936;2022-11-20T00:17:57;97894.95;;;2.62;67.31
61361;BME280;47232;47.506;18.936;2022-11-20T00:20:22;97892.98;;;2.60;67.17
61361;BME280;47232;47.506;18.936;2022-11-20T00:22:49;97886.98;;;2.57;67.15
61361;BME280;47232;47.506;18.936;2022-11-20T00:25:14;97895.86;;;2.55;67.01
61361;BME280;47232;47.506;18.936;2022-11-20T00:27:40;97895.77;;;2.53;67.07
61361;BME280;47232;47.506;18.936;2022-11-20T00:30:06;97888.11;;;2.52;67.12
61361;BME280;47232;47.506;18.936;2022-11-20T00:32:32;97878.70;;;2.50;67.00
61361;BME280;47232;47.506;18.936;2022-11-20T00:34:57;97880.61;;;2.49;67.11
61361;BME280;47232;47.506;18.936;2022-11-20T00:37:23;97888.80;;;2.49;67.04
61361;BME280;47232;47.506;18.936;2022-11-20T00:39:48;97899.70;;;2.49;67.14
61361;BME280;47232;47.506;18.936;2022-11-20T00:42:13;97911.81;;;2.47;67.09
61361;BME280;47232;47.506;18.936;2022-11-20T00:44:39;97923.04;;;2.43;67.09
61361;BME280;47232;47.506;18.936;2022-11-20T00:47:04;97914.22;;;2.36;67.12
61361;BME280;47232;47.506;18.936;2022-11-20T00:49:30;97903.90;;;2.33;66.92
61361;BME280;47232;47.506;18.936;2022-11-20T00:51:55;97898.27;;;2.31;66.89
61361;BME280;47232;47.506;18.936;2022-11-20T00:54:21;97897.64;;;2.30;67.14
61361;BME280;47232;47.506;18.936;2022-11-20T00:56:46;97890.86;;;2.28;67.51
61361;BME280;47232;47.506;18.936;2022-11-20T00:59:12;97892.39;;;2.25;67.39
61361;BME280;47232;47.506;18.936;2022-11-20T01:01:37;97891.02;;;2.22;67.63
61361;BME280;47232;47.506;18.936;2022-11-20T01:04:03;97891.43;;;2.22;67.59
61361;BME280;47232;47.506;18.936;2022-11-20T01:06:31;97892.12;;;2.23;67.63
61361;BME280;47232;47.506;18.936;2022-11-20T01:08:58;97891.11;;;2.27;67.57
61361;BME280;47232;47.506;18.936;2022-11-20T01:11:29;97899.66;;;2.33;67.57
61361;BME280;47232;47.506;18.936;2022-11-20T01:13:56;97906.73;;;2.39;67.44
61361;BME280;47232;47.506;18.936;2022-11-20T01:16:27;97909.48;;;2.43;67.40
61361;BME280;47232;47.506;18.936;2022-11-20T01:18:56;97902.67;;;2.47;67.34
61361;BME280;47232;47.506;18.936;2022-11-20T01:21:34;97900.13;;;2.51;67.21
61361;BME280;47232;47.506;18.936;2022-11-20T01:24:01;97897.50;;;2.54;67.00
61361;BME280;47232;47.506;18.936;2022-11-20T01:26:32;97900.38;;;2.55;66.87
61361;BME280;47232;47.506;18.936;2022-11-20T01:28:59;97909.04;;;2.54;66.77
61361;BME280;47232;47.506;18.936;2022-11-20T01:33:52;97918.55;;;2.47;66.89
61361;BME280;47232;47.506;18.936;2022-11-20T01:36:19;97912.03;;;2.43;67.02
61361;BME280;47232;47.506;18.936;2022-11-20T01:38:46;97902.84;;;2.39;67.19
61361;BME280;47232;47.506;18.936;2022-11-20T01:41:12;97892.53;;;2.34;67.56
61361;BME280;47232;47.506;18.936;2022-11-20T01:43:59;97890.95;;;2.31;67.73
61361;BME280;47232;47.506;18.936;2022-11-20T01:46:25;97885.70;;;2.28;67.81
61361;BME280;47232;47.506;18.936;2022-11-20T01:48:56;97885.75;;;2.22;68.17
61361;BME280;47232;47.506;18.936;2022-11-20T01:51:33;97884.05;;;2.16;68.34
61361;BME280;47232;47.506;18.936;2022-11-20T01:54:04;97874.55;;;2.13;68.55
61361;BME280;47232;47.506;18.936;2022-11-20T01:56:33;97870.09;;;2.12;68.73
61361;BME280;47232;47.506;18.936;2022-11-20T01:59:02;97867.70;;;2.11;68.85
61361;BME280;47232;47.506;18.936;2022-11-20T02:01:29;97867.16;;;2.10;68.76
61361;BME280;47232;47.506;18.936;2022-11-20T02:03:56;97876.04;;;2.11;68.94
61361;BME280;47232;47.506;18.936;2022-11-20T02:06:35;97877.04;;;2.17;69.02
61361;BME280;47232;47.506;18.936;2022-11-20T02:09:02;97881.57;;;2.23;69.20
61361;BME280;47232;47.506;18.936;2022-11-20T02:11:30;97882.33;;;2.30;69.37
61361;BME280;47232;47.506;18.936;2022-11-20T02:13:55;97888.86;;;2.38;69.39
61361;BME280;47232;47.506;18.936;2022-11-20T02:16:24;97890.72;;;2.45;69.50
61361;BME280;47232;47.506;18.936;2022-11-20T02:18:51;97881.89;;;2.50;69.38
61361;BME280;47232;47.506;18.936;2022-11-20T02:21:27;97881.93;;;2.55;69.37
61361;BME280;47232;47.506;18.936;2022-11-20T02:24:04;97889.42;;;2.58;69.17
61361;BME280;47232;47.506;18.936;2022-11-20T02:26:33;97893.04;;;2.60;69.07
61361;BME280;47232;47.506;18.936;2022-11-20T02:29:00;97893.41;;;2.61;69.09
61361;BME280;47232;47.506;18.936;2022-11-20T02:31:27;97886.54;;;2.62;69.01
61361;BME280;47232;47.506;18.936;2022-11-20T02:33:58;97871.97;;;2.62;69.02
61361;BME280;47232;47.506;18.936;2022-11-20T02:36:24;97865.13;;;2.62;69.09
61361;BME280;47232;47.506;18.936;2022-11-20T02:38:51;97861.99;;;2.59;69.21
61361;BME280;47232;47.506;18.936;2022-11-20T02:41:17;97861.78;;;2.55;69.06
61361;BME280;47232;47.506;18.936;2022-11-20T02:43:43;97865.48;;;2.51;69.03
61361;BME280;47232;47.506;18.936;2022-11-20T02:46:08;97860.90;;;2.45;69.11
61361;BME280;47232;47.506;18.936;2022-11-20T02:48:33;97862.92;;;2.43;69.16
61361;BME280;47232;47.506;18.936;2022-11-20T02:50:59;97860.17;;;2.40;69.24
61361;BME280;47232;47.506;18.936;2022-11-20T02:53:24;97865.39;;;2.36;69.27
61361;BME280;47232;47.506;18.936;2022-11-20T02:55:50;97871.02;;;2.33;69.42
61361;BME280;47232;47.506;18.936;2022-11-20T02:58:15;97879.64;;;2.31;69.41
61361;BME280;47232;47.506;18.936;2022-11-20T03:00:41;97875.81;;;2.29;69.48
61361;BME280;47232;47.506;18.936;2022-11-20T03:03:06;97863.36;;;2.31;69.69
61361;BME280;47232;47.506;18.936;2022-11-20T03:05:32;97860.45;;;2.35;69.95
61361;BME280;47232;47.506;18.936;2022-11-20T03:07:57;97849.06;;;2.41;69.98
61361;BME280;47232;47.506;18.936;2022-11-20T03:10:22;97853.79;;;2.47;69.93
61361;BME280;47232;47.506;18.936;2022-11-20T03:12:53;97858.66;;;2.53;69.92
61361;BME280;47232;47.506;18.936;2022-11-20T03:15:18;97861.30;;;2.59;70.02
61361;BME280;47232;47.506;18.936;2022-11-20T03:17:43;97855.23;;;2.64;69.85
61361;BME280;47232;47.506;18.936;2022-11-20T03:20:09;97854.84;;;2.67;69.54
61361;BME280;47232;47.506;18.936;2022-11-20T03:22:35;97860.70;;;2.67;69.59
61361;BME280;47232;47.506;18.936;2022-11-20T03:25:00;97870.98;;;2.64;69.52
61361;BME280;47232;47.506;18.936;2022-11-20T03:27:25;97882.07;;;2.62;69.55
61361;BME280;47232;47.506;18.936;2022-11-20T03:29:51;97885.64;;;2.60;69.40
61361;BME280;47232;47.506;18.936;2022-11-20T03:32:16;97884.54;;;2.57;69.60
61361;BME280;47232;47.506;18.936;2022-11-20T03:34:42;97884.06;;;2.55;69.60
61361;BME280;47232;47.506;18.936;2022-11-20T03:37:07;97878.27;;;2.53;69.60
61361;BME280;47232;47.506;18.936;2022-11-20T03:39:32;97870.84;;;2.51;69.65
61361;BME280;47232;47.506;18.936;2022-11-20T03:41:58;97873.02;;;2.47;69.63
61361;BME280;47232;47.506;18.936;2022-11-20T03:44:23;97878.23;;;2.44;69.79
61361;BME280;47232;47.506;18.936;2022-11-20T03:46:49;97877.17;;;2.40;69.79
61361;BME280;47232;47.506;18.936;2022-11-20T03:49:14;97871.98;;;2.36;69.87
61361;BME280;47232;47.506;18.936;2022-11-20T03:51:39;97870.43;;;2.34;69.99
61361;BME280;47232;47.506;18.936;2022-11-20T03:54:07;97874.80;;;2.34;70.13
61361;BME280;47232;47.506;18.936;2022-11-20T03:56:35;97878.20;;;2.38;70.16
61361;BME280;47232;47.506;18.936;2022-11-20T03:59:01;97881.01;;;2.41;70.21
61361;BME280;47232;47.506;18.936;2022-11-20T04:01:29;97875.20;;;2.46;70.28
61361;BME280;47232;47.506;18.936;2022-11-20T04:03:56;97871.95;;;2.52;70.42
61361;BME280;47232;47.506;18.936;2022-11-20T04:06:30;97870.55;;;2.60;70.57
61361;BME280;47232;47.506;18.936;2022-11-20T04:08:57;97867.66;;;2.66;70.63
61361;BME280;47232;47.506;18.936;2022-11-20T04:11:25;97866.31;;;2.71;70.64
61361;BME280;47232;47.506;18.936;2022-11-20T04:13:54;97860.84;;;2.75;70.63
61361;BME280;47232;47.506;18.936;2022-11-20T04:16:23;97851.52;;;2.78;70.55
61361;BME280;47232;47.506;18.936;2022-11-20T04:18:57;97846.79;;;2.79;70.57
61361;BME280;47232;47.506;18.936;2022-11-20T04:21:24;97839.50;;;2.81;70.53
61361;BME280;47232;47.506;18.936;2022-11-20T04:23:51;97833.06;;;2.80;70.35
61361;BME280;47232;47.506;18.936;2022-11-20T04:26:18;97827.11;;;2.78;70.18
61361;BME280;47232;47.506;18.936;2022-11-20T04:28:44;97828.77;;;2.77;70.11
61361;BME280;47232;47.506;18.936;2022-11-20T04:31:18;97828.77;;;2.75;70.05
61361;BME280;47232;47.506;18.936;2022-11-20T04:33:46;97834.30;;;2.74;69.80
61361;BME280;47232;47.506;18.936;2022-11-20T04:36:17;97834.73;;;2.71;69.66
61361;BME280;47232;47.506;18.936;2022-11-20T04:38:44;97830.98;;;2.66;69.57
61361;BME280;47232;47.506;18.936;2022-11-20T04:41:20;97831.05;;;2.61;69.71
61361;BME280;47232;47.506;18.936;2022-11-20T04:43:48;97833.66;;;2.57;69.76
61361;BME280;47232;47.506;18.936;2022-11-20T04:46:14;97825.54;;;2.55;69.87
61361;BME280;47232;47.506;18.936;2022-11-20T04:48:40;97820.77;;;2.53;69.88
61361;BME280;47232;47.506;18.936;2022-11-20T04:51:06;97816.20;;;2.52;69.87
61361;BME280;47232;47.506;18.936;2022-11-20T04:53:32;97813.80;;;2.54;70.07
61361;BME280;47232;47.506;18.936;2022-11-20T04:56:01;97805.23;;;2.58;70.26
61361;BME280;47232;47.506;18.936;2022-11-20T04:58:28;97804.20;;;2.62;70.37
61361;BME280;47232;47.506;18.936;2022-11-20T05:00:53;97804.60;;;2.70;70.35
61361;BME280;47232;47.506;18.936;2022-11-20T05:03:25;97806.34;;;2.77;70.36
61361;BME280;47232;47.506;18.936;2022-11-20T05:05:50;97813.98;;;2.80;70.00
61361;BME280;47232;47.506;18.936;2022-11-20T05:08:16;97817.96;;;2.80;70.12
61361;BME280;47232;47.506;18.936;2022-11-20T05:10:41;97824.23;;;2.82;70.15
61361;BME280;47232;47.506;18.936;2022-11-20T05:13:06;97828.27;;;2.84;70.05
61361;BME280;47232;47.506;18.936;2022-11-20T05:15:32;97821.30;;;2.84;70.02
61361;BME280;47232;47.506;18.936;2022-11-20T05:17:57;97816.45;;;2.86;70.00
61361;BME280;47232;47.506;18.936;2022-11-20T05:20:23;97815.85;;;2.86;69.92
61361;BME280;47232;47.506;18.936;2022-11-20T05:22:50;97813.36;;;2.86;69.82
61361;BME280;47232;47.506;18.936;2022-11-20T05:25:16;97816.17;;;2.86;69.85
61361;BME280;47232;47.506;18.936;2022-11-20T05:27:41;97819.11;;;2.84;69.50
61361;BME280;47232;47.506;18.936;2022-11-20T05:30:09;97804.94;;;2.81;69.44
61361;BME280;47232;47.506;18.936;2022-11-20T05:32:34;97797.17;;;2.79;69.51
61361;BME280;47232;47.506;18.936;2022-11-20T05:34:59;97800.27;;;2.76;69.69
61361;BME280;47232;47.506;18.936;2022-11-20T05:37:25;97796.14;;;2.73;69.95
61361;BME280;47232;47.506;18.936;2022-11-20T05:39:50;97801.73;;;2.70;70.08
61361;BME280;47232;47.506;18.936;2022-11-20T05:42:16;97801.48;;;2.69;70.11
61361;BME280;47232;47.506;18.936;2022-11-20T05:45:01;97807.17;;;2.68;70.19
61361;BME280;47232;47.506;18.936;2022-11-20T05:47:30;97809.82;;;2.69;69.95
61361;BME280;47232;47.506;18.936;2022-11-20T05:49:56;97804.64;;;2.73;69.91
61361;BME280;47232;47.506;18.936;2022-11-20T05:52:22;97809.19;;;2.80;70.04
61361;BME280;47232;47.506;18.936;2022-11-20T05:54:47;97824.20;;;2.86;70.17
61361;BME280;47232;47.506;18.936;2022-11-20T05:57:13;97830.52;;;2.90;70.26
61361;BME280;47232;47.506;18.936;2022-11-20T05:59:38;97831.14;;;2.95;70.01
61361;BME280;47232;47.506;18.936;2022-11-20T06:02:03;97829.20;;;2.98;69.93
61361;BME280;47232;47.506;18.936;2022-11-20T06:04:29;97831.48;;;3.02;70.05
61361;BME280;47232;47.506;18.936;2022-11-20T06:06:54;97831.73;;;3.04;69.79
61361;BME280;47232;47.506;18.936;2022-11-20T06:09:19;97839.39;;;3.06;69.56
61361;BME280;47232;47.506;18.936;2022-11-20T06:11:45;97840.66;;;3.06;69.52
61361;BME280;47232;47.506;18.936;2022-11-20T06:14:10;97832.10;;;3.06;69.56
61361;BME280;47232;47.506;18.936;2022-11-20T06:16:36;97830.82;;;3.05;69.51
61361;BME280;47232;47.506;18.936;2022-11-20T06:19:01;97830.84;;;3.04;69.50
61361;BME280;47232;47.506;18.936;2022-11-20T06:21:27;97828.98;;;3.03;69.40
61361;BME280;47232;47.506;18.936;2022-11-20T06:23:53;97829.84;;;3.01;69.44
61361;BME280;47232;47.506;18.936;2022-11-20T06:28:44;97835.65;;;2.97;69.53
61361;BME280;47232;47.506;18.936;2022-11-20T06:31:12;97831.88;;;2.95;69.73
61361;BME280;47232;47.506;18.936;2022-11-20T06:33:39;97830.93;;;2.93;70.02
61361;BME280;47232;47.506;18.936;2022-11-20T06:36:04;97843.32;;;2.93;70.10
61361;BME280;47232;47.506;18.936;2022-11-20T06:38:30;97857.26;;;2.93;70.30
61361;BME280;47232;47.506;18.936;2022-11-20T06:40:56;97861.45;;;2.96;70.21
61361;BME280;47232;47.506;18.936;2022-11-20T06:43:22;97863.83;;;3.01;70.27
61361;BME280;47232;47.506;18.936;2022-11-20T06:45:54;97866.73;;;3.07;70.21
61361;BME280;47232;47.506;18.936;2022-11-20T06:48:23;97864.68;;;3.14;70.41
61361;BME280;47232;47.506;18.936;2022-11-20T06:50:49;97864.43;;;3.22;70.48
61361;BME280;47232;47.506;18.936;2022-11-20T06:53:14;97868.81;;;3.28;70.31
61361;BME280;47232;47.506;18.936;2022-11-20T06:55:45;97864.36;;;3.33;70.28
61361;BME280;47232;47.506;18.936;2022-11-20T06:58:11;97857.69;;;3.37;70.03
61361;BME280;47232;47.506;18.936;2022-11-20T07:00:37;97854.33;;;3.41;70.04
61361;BME280;47232;47.506;18.936;2022-11-20T07:03:07;97857.43;;;3.45;69.98
61361;BME280;47232;47.506;18.936;2022-11-20T07:05:34;97853.86;;;3.47;69.90
61361;BME280;47232;47.506;18.936;2022-11-20T07:08:00;97851.34;;;3.48;70.10
61361;BME280;47232;47.506;18.936;2022-11-20T07:10:25;97857.24;;;3.50;70.29
61361;BME280;47232;47.506;18.936;2022-11-20T07:12:52;97860.11;;;3.50;70.08
61361;BME280;47232;47.506;18.936;2022-11-20T07:15:19;97869.45;;;3.48;70.01
61361;BME280;47232;47.506;18.936;2022-11-20T07:17:44;97876.00;;;3.46;69.88
61361;BME280;47232;47.506;18.936;2022-11-20T07:20:10;97887.77;;;3.45;69.91
61361;BME280;47232;47.506;18.936;2022-11-20T07:22:36;97888.06;;;3.41;70.10
61361;BME280;47232;47.506;18.936;2022-11-20T07:25:02;97887.23;;;3.39;70.15
61361;BME280;47232;47.506;18.936;2022-11-20T07:27:31;97886.32;;;3.39;70.50
61361;BME280;47232;47.506;18.936;2022-11-20T07:29:57;97888.77;;;3.39;70.55
61361;BME280;47232;47.506;18.936;2022-11-20T07:32:23;97888.59;;;3.42;70.90
61361;BME280;47232;47.506;18.936;2022-11-20T07:34:48;97886.64;;;3.49;71.18
61361;BME280;47232;47.506;18.936;2022-11-20T07:37:14;97889.05;;;3.56;71.33
61361;BME280;47232;47.506;18.936;2022-11-20T07:39:39;97888.20;;;3.65;71.39
61361;BME280;47232;47.506;18.936;2022-11-20T07:42:08;97887.11;;;3.75;71.62
61361;BME280;47232;47.506;18.936;2022-11-20T07:44:34;97884.99;;;3.83;71.14
61361;BME280;47232;47.506;18.936;2022-11-20T07:47:00;97886.00;;;3.91;71.36
61361;BME280;47232;47.506;18.936;2022-11-20T07:49:25;97882.95;;;3.98;71.29
61361;BME280;47232;47.506;18.936;2022-11-20T07:51:51;97882.44;;;4.03;71.28
61361;BME280;47232;47.506;18.936;2022-11-20T07:54:20;97880.27;;;4.08;71.50
61361;BME280;47232;47.506;18.936;2022-11-20T07:56:46;97884.29;;;4.12;71.28
61361;BME280;47232;47.506;18.936;2022-11-20T07:59:12;97879.04;;;4.15;71.23
61361;BME280;47232;47.506;18.936;2022-11-20T08:01:38;97872.30;;;4.17;71.10
61361;BME280;47232;47.506;18.936;2022-11-20T08:04:04;97862.59;;;4.19;71.36
61361;BME280;47232;47.506;18.936;2022-11-20T08:06:30;97860.69;;;4.23;71.35
61361;BME280;47232;47.506;18.936;2022-11-20T08:08:55;97859.64;;;4.28;71.41
61361;BME280;47232;47.506;18.936;2022-11-20T08:11:21;97857.27;;;4.32;71.48
61361;BME280;47232;47.506;18.936;2022-11-20T08:14:05;97860.04;;;4.37;71.58
61361;BME280;47232;47.506;18.936;2022-11-20T08:16:47;97863.66;;;4.44;71.58
61361;BME280;47232;47.506;18.936;2022-11-20T08:19:14;97867.30;;;4.52;71.84
61361;BME280;47232;47.506;18.936;2022-11-20T08:21:40;97872.99;;;4.58;71.74
61361;BME280;47232;47.506;18.936;2022-11-20T08:24:07;97866.73;;;4.67;72.15
61361;BME280;47232;47.506;18.936;2022-11-20T08:26:33;97865.46;;;4.79;72.28
61361;BME280;47232;47.506;18.936;2022-11-20T08:28:59;97864.00;;;4.91;72.33
61361;BME280;47232;47.506;18.936;2022-11-20T08:31:26;97864.13;;;5.03;72.49
61361;BME280;47232;47.506;18.936;2022-11-20T08:33:52;97869.39;;;5.13;72.19
61361;BME280;47232;47.506;18.936;2022-11-20T08:36:18;97867.65;;;5.21;72.27
61361;BME280;47232;47.506;18.936;2022-11-20T08:38:55;97870.88;;;5.26;71.96
61361;BME280;47232;47.506;18.936;2022-11-20T08:41:21;97874.47;;;5.34;71.80
61361;BME280;47232;47.506;18.936;2022-11-20T08:43:59;97881.10;;;5.38;71.66
61361;BME280;47232;47.506;18.936;2022-11-20T08:46:25;97882.56;;;5.40;71.48
61361;BME280;47232;47.506;18.936;2022-11-20T08:48:51;97883.05;;;5.39;71.87
61361;BME280;47232;47.506;18.936;2022-11-20T08:51:18;97891.61;;;5.38;71.56
61361;BME280;47232;47.506;18.936;2022-11-20T08:53:47;97893.96;;;5.37;71.47
61361;BME280;47232;47.506;18.936;2022-11-20T08:56:14;97894.55;;;5.34;71.57
61361;BME280;47232;47.506;18.936;2022-11-20T08:58:40;97901.08;;;5.32;71.17
61361;BME280;47232;47.506;18.936;2022-11-20T09:01:06;97904.95;;;5.30;71.47
61361;BME280;47232;47.506;18.936;2022-11-20T09:03:31;97914.00;;;5.28;71.14
61361;BME280;47232;47.506;18.936;2022-11-20T09:05:59;97917.92;;;5.30;71.51
61361;BME280;47232;47.506;18.936;2022-11-20T09:08:25;97917.02;;;5.34;71.44
61361;BME280;47232;47.506;18.936;2022-11-20T09:10:52;97918.46;;;5.38;71.37
61361;BME280;47232;47.506;18.936;2022-11-20T09:13:18;97920.64;;;5.44;71.33
61361;BME280;47232;47.506;18.936;2022-11-20T09:15:44;97917.89;;;5.50;71.67
61361;BME280;47232;47.506;18.936;2022-11-20T09:18:09;97912.91;;;5.55;71.53
61361;BME280;47232;47.506;18.936;2022-11-20T09:20:35;97911.23;;;5.60;71.68
61361;BME280;47232;47.506;18.936;2022-11-20T09:23:00;97918.88;;;5.64;71.65
61361;BME280;47232;47.506;18.936;2022-11-20T09:25:26;97920.19;;;5.65;71.45
61361;BME280;47232;47.506;18.936;2022-11-20T09:27:55;97918.32;;;5.65;71.65
61361;BME280;47232;47.506;18.936;2022-11-20T09:30:21;97913.45;;;5.66;71.53
61361;BME280;47232;47.506;18.936;2022-11-20T09:32:46;97912.70;;;5.65;71.62
61361;BME280;47232;47.506;18.936;2022-11-20T09:35:12;97912.66;;;5.65;71.56
61361;BME280;47232;47.506;18.936;2022-11-20T09:37:38;97906.58;;;5.64;71.75
61361;BME280;47232;47.506;18.936;2022-11-20T09:40:04;97908.01;;;5.66;71.47
61361;BME280;47232;47.506;18.936;2022-11-20T09:42:57;97906.67;;;5.69;71.46
61361;BME280;47232;47.506;18.936;2022-11-20T09:54:12;97909.64;;;5.96;71.40
61361;BME280;47232;47.506;18.936;2022-11-20T09:56:44;97908.38;;;6.05;71.17
61361;BME280;47232;47.506;18.936;2022-11-20T09:59:24;97909.96;;;6.13;70.78
61361;BME280;47232;47.506;18.936;2022-11-20T10:01:54;97908.83;;;6.22;71.02
61361;BME280;47232;47.506;18.936;2022-11-20T10:04:20;97907.89;;;6.30;70.61
61361;BME280;47232;47.506;18.936;2022-11-20T10:09:57;97896.76;;;6.46;70.03
61361;BME280;47232;47.506;18.936;2022-11-20T10:15:27;97889.60;;;6.63;69.24
61361;BME280;47232;47.506;18.936;2022-11-20T10:23:17;97871.89;;;6.95;68.14
61361;BME280;47232;47.506;18.936;2022-11-20T10:26:12;97866.65;;;7.05;67.02
61361;BME280;47232;47.506;18.936;2022-11-20T10:29:03;97863.02;;;7.13;67.03
61361;BME280;47232;47.506;18.936;2022-11-20T10:31:44;97857.02;;;7.28;66.83
61361;BME280;47232;47.506;18.936;2022-11-20T10:34:25;97852.63;;;7.46;66.31
61361;BME280;47232;47.506;18.936;2022-11-20T10:37:14;97854.29;;;7.66;65.95
61361;BME280;47232;47.506;18.936;2022-11-20T10:39:54;97848.70;;;7.87;64.92
61361;BME280;47232;47.506;18.936;2022-11-20T10:42:46;97850.03;;;8.03;64.78
61361;BME280;47232;47.506;18.936;2022-11-20T10:47:54;97854.76;;;8.44;63.96
61361;BME280;47232;47.506;18.936;2022-11-20T10:50:22;97855.51;;;8.58;63.67
61361;BME280;47232;47.506;18.936;2022-11-20T10:53:02;97852.69;;;8.65;63.22
61361;BME280;47232;47.506;18.936;2022-11-20T10:55:44;97856.21;;;8.66;62.66
61361;BME280;47232;47.506;18.936;2022-11-20T10:58:16;97849.44;;;8.58;62.49
61361;BME280;47232;47.506;18.936;2022-11-20T11:00:45;97851.98;;;8.49;62.49
61361;BME280;47232;47.506;18.936;2022-11-20T11:03:30;97859.35;;;8.49;62.13
61361;BME280;47232;47.506;18.936;2022-11-20T11:06:07;97867.24;;;8.52;62.23
61361;BME280;47232;47.506;18.936;2022-11-20T11:08:38;97871.87;;;8.52;61.93
61361;BME280;47232;47.506;18.936;2022-11-20T11:11:52;97871.78;;;8.45;61.64
61361;BME280;47232;47.506;18.936;2022-11-20T11:14:08;97868.48;;;8.36;61.60
61361;BME280;47232;47.506;18.936;2022-11-20T11:16:34;97871.21;;;8.34;61.64
61361;BME280;47232;47.506;18.936;2022-11-20T11:19:05;97869.55;;;8.40;61.55
61361;BME280;47232;47.506;18.936;2022-11-20T11:21:32;97876.45;;;8.39;61.60
61361;BME280;47232;47.506;18.936;2022-11-20T11:23:59;97880.94;;;8.37;61.78
61361;BME280;47232;47.506;18.936;2022-11-20T11:26:25;97878.86;;;8.35;61.43
61361;BME280;47232;47.506;18.936;2022-11-20T11:28:58;97888.77;;;8.36;61.69
61361;BME280;47232;47.506;18.936;2022-11-20T11:31:32;97886.86;;;8.41;61.60
61361;BME280;47232;47.506;18.936;2022-11-20T11:34:12;97885.58;;;8.44;61.66
61361;BME280;47232;47.506;18.936;2022-11-20T11:36:38;97888.95;;;8.44;61.43
61361;BME280;47232;47.506;18.936;2022-11-20T11:39:06;97881.63;;;8.40;61.21
61361;BME280;47232;47.506;18.936;2022-11-20T11:41:35;97880.58;;;8.39;61.46
61361;BME280;47232;47.506;18.936;2022-11-20T11:44:32;97875.19;;;8.34;61.10
61361;BME280;47232;47.506;18.936;2022-11-20T11:49:48;97860.13;;;8.23;61.30
61361;BME280;47232;47.506;18.936;2022-11-20T11:52:18;97855.54;;;8.16;61.11
61361;BME280;47232;47.506;18.936;2022-11-20T11:57:26;97847.73;;;8.05;61.35
61361;BME280;47232;47.506;18.936;2022-11-20T12:00:11;97841.90;;;8.05;61.47
61361;BME280;47232;47.506;18.936;2022-11-20T12:10:23;97851.64;;;7.95;61.68
61361;BME280;47232;47.506;18.936;2022-11-20T12:13:00;97852.52;;;7.94;61.78
61361;BME280;47232;47.506;18.936;2022-11-20T12:15:33;97854.46;;;7.91;61.51
61361;BME280;47232;47.506;18.936;2022-11-20T12:17:59;97860.35;;;7.87;61.59
61361;BME280;47232;47.506;18.936;2022-11-20T12:20:30;97857.02;;;7.84;61.88
61361;BME280;47232;47.506;18.936;2022-11-20T12:23:28;97850.02;;;7.79;61.63
61361;BME280;47232;47.506;18.936;2022-11-20T12:26:01;97849.84;;;7.77;62.01
61361;BME280;47232;47.506;18.936;2022-11-20T12:37:15;97833.70;;;7.99;62.32
61361;BME280;47232;47.506;18.936;2022-11-20T12:39:48;97832.83;;;7.99;62.33
61361;BME280;47232;47.506;18.936;2022-11-20T12:45:41;97833.20;;;7.99;62.37
61361;BME280;47232;47.506;18.936;2022-11-20T12:48:26;97838.09;;;8.01;62.23
61361;BME280;47232;47.506;18.936;2022-11-20T12:51:39;97834.70;;;8.01;62.09
61361;BME280;47232;47.506;18.936;2022-11-20T13:05:21;97831.63;;;8.11;61.76
61361;BME280;47232;47.506;18.936;2022-11-20T13:07:52;97837.05;;;8.15;61.65
61361;BME280;47232;47.506;18.936;2022-11-20T13:10:37;97841.08;;;8.19;61.75
61361;BME280;47232;47.506;18.936;2022-11-20T13:13:16;97843.82;;;8.23;61.47
61361;BME280;47232;47.506;18.936;2022-11-20T13:15:59;97847.86;;;8.24;61.18
61361;BME280;47232;47.506;18.936;2022-11-20T13:18:37;97849.14;;;8.21;60.97
61361;BME280;47232;47.506;18.936;2022-11-20T13:21:20;97844.38;;;8.13;61.01
61361;BME280;47232;47.506;18.936;2022-11-20T13:23:46;97840.11;;;8.10;61.27
61361;BME280;47232;47.506;18.936;2022-11-20T13:26:29;97841.20;;;8.09;61.33
61361;BME280;47232;47.506;18.936;2022-11-20T13:29:17;97841.85;;;8.09;61.32
61361;BME280;47232;47.506;18.936;2022-11-20T13:31:45;97834.59;;;8.10;61.31
61361;BME280;47232;47.506;18.936;2022-11-20T13:34:23;97830.94;;;8.06;61.39
61361;BME280;47232;47.506;18.936;2022-11-20T13:36:59;97825.99;;;8.07;61.62
61361;BME280;47232;47.506;18.936;2022-11-20T13:39:32;97825.58;;;8.08;61.59
61361;BME280;47232;47.506;18.936;2022-11-20T13:44:44;97813.23;;;8.01;61.97
61361;BME280;47232;47.506;18.936;2022-11-20T13:47:26;97805.80;;;8.01;61.77
61361;BME280;47232;47.506;18.936;2022-11-20T13:49:53;97805.90;;;8.02;61.74
61361;BME280;47232;47.506;18.936;2022-11-20T14:00:28;97800.08;;;7.94;61.85
61361;BME280;47232;47.506;18.936;2022-11-20T14:03:09;97798.92;;;7.93;61.90
61361;BME280;47232;47.506;18.936;2022-11-20T14:05:49;97793.63;;;7.93;62.16
61361;BME280;47232;47.506;18.936;2022-11-20T14:08:37;97793.34;;;7.93;61.84
61361;BME280;47232;47.506;18.936;2022-11-20T14:11:12;97799.05;;;8.01;62.07
61361;BME280;47232;47.506;18.936;2022-11-20T14:13:39;97799.60;;;8.15;61.80
61361;BME280;47232;47.506;18.936;2022-11-20T14:16:04;97804.02;;;8.31;61.46
61361;BME280;47232;47.506;18.936;2022-11-20T14:18:29;97808.27;;;8.43;61.49
61361;BME280;47232;47.506;18.936;2022-11-20T14:20:55;97807.11;;;8.47;61.18
61361;BME280;47232;47.506;18.936;2022-11-20T14:23:28;97811.25;;;8.52;61.04
61361;BME280;47232;47.506;18.936;2022-11-20T14:25:54;97808.61;;;8.59;60.80